Time;durP1;ratioP1;P1;durP2;ratioP2;P2;SDS_P1;SDS_P2;PMS_P1;PMS_P2;Temp;Humidity;BMP_temperature;BMP_pressure;BME280_temperature;BME280_humidity;BME280_pressure;Samples;Min_cycle;Max_cycle;Signal;HPM_P1;HPM_P2
2021/10/09 00:00:05;;;;;;;11.65;10.45;;;;;;;;;;5007802;28;20200;-75
2021/10/09 00:02:32;;;;;;;14.57;11.90;;;;;;;;;;5010004;28;20204;-75
2021/10/09 00:04:59;;;;;;;13.07;11.70;;;;;;;;;;5011022;28;20562;-76
2021/10/09 00:07:27;;;;;;;11.27;9.98;;;;;;;;;;4998042;28;20221;-76
2021/10/09 00:09:59;;;;;;;13.40;12.00;;;;;;;;;;5009062;28;20193;-77
2021/10/09 00:12:26;;;;;;;11.65;9.88;;;;;;;;;;5007924;28;20288;-77
2021/10/09 00:14:53;;;;;;;13.23;11.40;;;;;;;;;;5010848;28;20200;-76
2021/10/09 00:17:23;;;;;;;12.73;10.73;;;;;;;;;;5009988;28;20193;-76
2021/10/09 00:19:50;;;;;;;11.25;9.90;;;;;;;;;;5007415;28;20203;-76
2021/10/09 00:22:17;;;;;;;13.63;12.18;;;;;;;;;;5008878;28;20205;-75
2021/10/09 00:24:45;;;;;;;11.80;10.40;;;;;;;;;;5009583;28;20672;-76
2021/10/09 00:27:13;;;;;;;12.20;10.38;;;;;;;;;;5010568;28;20212;-77
2021/10/09 00:29:40;;;;;;;11.48;10.07;;;;;;;;;;5012709;28;20599;-77
2021/10/09 00:32:07;;;;;;;11.43;10.32;;;;;;;;;;5012292;28;20196;-78
2021/10/09 00:34:34;;;;;;;13.77;12.45;;;;;;;;;;5014636;28;20197;-77
2021/10/09 00:37:01;;;;;;;12.60;11.30;;;;;;;;;;5006716;28;20239;-77
2021/10/09 00:39:28;;;;;;;11.38;10.13;;;;;;;;;;5012375;28;20197;-79
2021/10/09 00:41:57;;;;;;;12.00;10.80;;;;;;;;;;5011641;28;20267;-76
2021/10/09 00:44:24;;;;;;;11.65;10.45;;;;;;;;;;5013560;28;20227;-77
2021/10/09 00:46:51;;;;;;;10.98;9.88;;;;;;;;;;5013926;28;20193;-77
2021/10/09 00:49:18;;;;;;;12.20;9.90;;;;;;;;;;5011837;28;20684;-77
2021/10/09 00:51:45;;;;;;;11.10;10.00;;;;;;;;;;5013333;28;20201;-77
2021/10/09 00:54:12;;;;;;;13.65;9.73;;;;;;;;;;5011215;28;20255;-77
2021/10/09 00:56:41;;;;;;;12.13;10.82;;;;;;;;;;5010203;28;20236;-76
2021/10/09 00:59:10;;;;;;;13.70;12.30;;;;;;;;;;5012109;28;20193;-76
2021/10/09 01:01:38;;;;;;;14.25;11.88;;;;;;;;;;5013879;28;20201;-77
2021/10/09 01:04:05;;;;;;;12.85;11.55;;;;;;;;;;5013972;28;20197;-76
2021/10/09 01:06:33;;;;;;;14.27;12.85;;;;;;;;;;5014370;28;20711;-76
2021/10/09 01:09:00;;;;;;;12.18;10.82;;;;;;;;;;5014008;28;20220;-77
2021/10/09 01:11:27;;;;;;;11.85;10.68;;;;;;;;;;5012819;28;20205;-77
2021/10/09 01:13:54;;;;;;;12.07;10.93;;;;;;;;;;5006399;28;20264;-77
2021/10/09 01:16:23;;;;;;;14.18;11.70;;;;;;;;;;5005289;28;20197;-76
2021/10/09 01:18:50;;;;;;;13.85;12.35;;;;;;;;;;5011167;28;20763;-76
2021/10/09 01:21:19;;;;;;;13.35;11.88;;;;;;;;;;5009452;28;20201;-76
2021/10/09 01:23:46;;;;;;;12.55;11.25;;;;;;;;;;5013589;28;20270;-76
2021/10/09 01:26:14;;;;;;;16.63;12.82;;;;;;;;;;5012310;28;20267;-76
2021/10/09 01:28:47;;;;;;;13.65;11.82;;;;;;;;;;5011155;28;20955;-76
2021/10/09 01:31:14;;;;;;;12.68;11.07;;;;;;;;;;5010881;28;20299;-76
2021/10/09 01:33:42;;;;;;;14.70;13.15;;;;;;;;;;5013012;28;20671;-77
2021/10/09 01:36:09;;;;;;;14.02;12.35;;;;;;;;;;5008020;28;20204;-77
2021/10/09 01:38:38;;;;;;;13.27;11.98;;;;;;;;;;5012976;28;20205;-77
2021/10/09 01:41:06;;;;;;;13.98;12.63;;;;;;;;;;5012439;28;20205;-76
2021/10/09 01:43:34;;;;;;;13.48;12.02;;;;;;;;;;5012089;28;20685;-77
2021/10/09 01:46:01;;;;;;;14.63;12.93;;;;;;;;;;5012200;28;20193;-77
2021/10/09 01:48:31;;;;;;;13.38;10.57;;;;;;;;;;5012245;28;20216;-76
2021/10/09 01:50:58;;;;;;;16.13;13.02;;;;;;;;;;5009619;28;20651;-77
2021/10/09 01:53:26;;;;;;;14.45;12.88;;;;;;;;;;5012513;28;20200;-76
2021/10/09 01:55:55;;;;;;;14.02;11.63;;;;;;;;;;5011473;28;20204;-76
2021/10/09 01:58:22;;;;;;;15.95;14.35;;;;;;;;;;5012071;28;20235;-76
2021/10/09 02:00:49;;;;;;;13.00;11.65;;;;;;;;;;5012077;28;20243;-76
2021/10/09 02:03:18;;;;;;;14.75;12.52;;;;;;;;;;5011216;28;20197;-76
2021/10/09 02:05:45;;;;;;;14.85;12.10;;;;;;;;;;5011708;28;20627;-76
2021/10/09 02:08:12;;;;;;;14.32;13.02;;;;;;;;;;5012426;28;20216;-76
2021/10/09 02:10:47;;;;;;;15.07;11.88;;;;;;;;;;5012934;28;20201;-77
2021/10/09 02:13:19;;;;;;;13.95;12.50;;;;;;;;;;4999458;28;20232;-76
2021/10/09 02:15:49;;;;;;;14.23;12.00;;;;;;;;;;5007709;28;20205;-76
2021/10/09 02:18:28;;;;;;;14.23;12.35;;;;;;;;;;5012596;28;20203;-76
2021/10/09 02:26:24;;;;;;;13.68;11.63;;;;;;;;;;5012593;28;20257;-78
2021/10/09 02:28:52;;;;;;;12.45;11.18;;;;;;;;;;5011701;28;20228;-79
2021/10/09 02:31:19;;;;;;;12.90;11.60;;;;;;;;;;5011213;28;20224;-78
2021/10/09 02:33:46;;;;;;;15.73;12.60;;;;;;;;;;5012037;28;20197;-78
2021/10/09 02:36:13;;;;;;;16.40;13.60;;;;;;;;;;5011978;28;20770;-78
2021/10/09 02:38:40;;;;;;;13.48;11.07;;;;;;;;;;5011795;28;20197;-78
2021/10/09 02:41:08;;;;;;;12.13;10.85;;;;;;;;;;5010531;28;20683;-78
2021/10/09 02:43:35;;;;;;;16.63;12.95;;;;;;;;;;5011493;28;20255;-78
2021/10/09 02:46:03;;;;;;;13.07;11.77;;;;;;;;;;5009914;28;20220;-78
2021/10/09 02:48:30;;;;;;;16.88;15.00;;;;;;;;;;5009176;28;20255;-78
2021/10/09 02:50:58;;;;;;;12.82;11.45;;;;;;;;;;5006146;28;20193;-77
2021/10/09 02:53:25;;;;;;;14.60;13.15;;;;;;;;;;5011254;28;20200;-77
2021/10/09 02:55:52;;;;;;;13.65;12.35;;;;;;;;;;5009986;28;20204;-77
2021/10/09 02:58:19;;;;;;;13.00;11.70;;;;;;;;;;5010289;28;20240;-77
2021/10/09 03:00:46;;;;;;;14.73;12.30;;;;;;;;;;5011074;28;20640;-77
2021/10/09 03:03:14;;;;;;;13.68;12.35;;;;;;;;;;5010694;28;20204;-77
2021/10/09 03:05:41;;;;;;;17.42;13.80;;;;;;;;;;5010372;28;20254;-77
2021/10/09 03:08:08;;;;;;;15.20;12.88;;;;;;;;;;5010792;28;20632;-76
2021/10/09 03:10:35;;;;;;;16.05;12.43;;;;;;;;;;5011816;28;20217;-78
2021/10/09 03:13:02;;;;;;;14.75;12.18;;;;;;;;;;5010064;28;20718;-77
2021/10/09 03:15:30;;;;;;;14.40;12.77;;;;;;;;;;5017603;28;20192;-78
2021/10/09 03:17:57;;;;;;;12.50;11.20;;;;;;;;;;5011273;28;20205;-77
2021/10/09 03:20:25;;;;;;;15.43;13.90;;;;;;;;;;5007124;28;20196;-77
2021/10/09 03:22:52;;;;;;;13.23;11.90;;;;;;;;;;5004290;28;20247;-77
2021/10/09 03:25:19;;;;;;;16.85;14.40;;;;;;;;;;5010287;28;20725;-77
2021/10/09 03:27:46;;;;;;;13.63;12.32;;;;;;;;;;5009756;28;20208;-77
2021/10/09 03:30:13;;;;;;;16.13;12.20;;;;;;;;;;5009450;28;20217;-77
2021/10/09 03:32:41;;;;;;;16.10;12.82;;;;;;;;;;5008812;28;20196;-77
2021/10/09 03:35:09;;;;;;;14.80;12.77;;;;;;;;;;5009167;28;20205;-77
2021/10/09 03:37:37;;;;;;;17.80;13.45;;;;;;;;;;4997904;28;20197;-77
2021/10/09 03:40:08;;;;;;;13.20;11.80;;;;;;;;;;5004234;28;20647;-77
2021/10/09 03:42:37;;;;;;;13.77;12.48;;;;;;;;;;5006710;28;20201;-78
2021/10/09 03:45:09;;;;;;;12.82;11.18;;;;;;;;;;5011216;28;20279;-76
2021/10/09 03:48:00;;;;;;;15.02;12.35;;;;;;;;;;5010534;28;20591;-76
2021/10/09 03:53:09;;;;;;;14.88;13.18;;;;;;;;;;5007958;28;20196;-76
2021/10/09 03:55:36;;;;;;;13.82;12.27;;;;;;;;;;5009867;28;20263;-76
2021/10/09 03:58:03;;;;;;;15.73;12.73;;;;;;;;;;5009004;28;20214;-76
2021/10/09 04:00:30;;;;;;;15.27;12.98;;;;;;;;;;5014215;28;20193;-77
2021/10/09 04:02:57;;;;;;;16.13;13.85;;;;;;;;;;5013132;28;20247;-77
2021/10/09 04:05:25;;;;;;;16.65;13.23;;;;;;;;;;5013576;28;20588;-77
2021/10/09 04:07:52;;;;;;;14.88;13.20;;;;;;;;;;5014172;28;20205;-77
2021/10/09 04:10:21;;;;;;;16.35;13.15;;;;;;;;;;5014586;28;20220;-78
2021/10/09 04:12:48;;;;;;;15.10;12.88;;;;;;;;;;5014818;28;20226;-78
2021/10/09 04:15:15;;;;;;;14.82;12.75;;;;;;;;;;5013870;28;20619;-78
2021/10/09 04:17:42;;;;;;;15.85;14.05;;;;;;;;;;5015143;28;20208;-78
2021/10/09 04:20:10;;;;;;;16.05;12.73;;;;;;;;;;5010274;28;20208;-77
2021/10/09 04:22:37;;;;;;;13.88;12.38;;;;;;;;;;5013401;28;20208;-77
2021/10/09 04:25:06;;;;;;;14.30;12.77;;;;;;;;;;5015112;28;20192;-78
2021/10/09 04:27:34;;;;;;;13.82;11.57;;;;;;;;;;5014101;28;20205;-76
2021/10/09 04:30:01;;;;;;;21.20;15.25;;;;;;;;;;5009032;28;20228;-76
2021/10/09 04:32:28;;;;;;;15.90;12.10;;;;;;;;;;5012442;28;20260;-75
2021/10/09 04:34:55;;;;;;;14.68;13.05;;;;;;;;;;5013346;28;20197;-76
2021/10/09 04:37:22;;;;;;;14.65;12.20;;;;;;;;;;5013586;28;20544;-77
2021/10/09 04:39:49;;;;;;;17.17;13.25;;;;;;;;;;5012936;28;20213;-76
2021/10/09 04:42:16;;;;;;;15.13;11.45;;;;;;;;;;5012750;28;20209;-76
2021/10/09 04:44:45;;;;;;;10.43;9.43;;;;;;;;;;5011488;28;20197;-76
2021/10/09 04:47:12;;;;;;;12.52;11.23;;;;;;;;;;5013764;28;20197;-76
2021/10/09 04:49:39;;;;;;;15.35;13.77;;;;;;;;;;5013858;28;20217;-76
2021/10/09 04:52:06;;;;;;;15.05;12.93;;;;;;;;;;5013487;28;20247;-76
2021/10/09 04:54:33;;;;;;;15.35;13.75;;;;;;;;;;5009863;28;20652;-76
2021/10/09 04:57:00;;;;;;;14.00;12.25;;;;;;;;;;5009101;28;20205;-78
2021/10/09 04:59:27;;;;;;;14.85;12.90;;;;;;;;;;5003350;28;20248;-77
2021/10/09 05:01:55;;;;;;;13.98;11.38;;;;;;;;;;5010381;28;20215;-78
2021/10/09 05:04:22;;;;;;;15.60;14.00;;;;;;;;;;5013184;28;20674;-78
2021/10/09 05:06:49;;;;;;;16.50;13.00;;;;;;;;;;5011158;28;20252;-78
2021/10/09 05:09:16;;;;;;;14.80;12.68;;;;;;;;;;5012924;28;20291;-78
2021/10/09 05:11:43;;;;;;;16.95;15.25;;;;;;;;;;5012187;28;20205;-78
2021/10/09 05:14:10;;;;;;;13.40;11.80;;;;;;;;;;5009838;28;20212;-79
2021/10/09 05:16:38;;;;;;;15.27;13.68;;;;;;;;;;5013342;28;20208;-78
2021/10/09 05:19:06;;;;;;;14.27;12.80;;;;;;;;;;5012956;28;20219;-78
2021/10/09 05:21:33;;;;;;;14.93;13.43;;;;;;;;;;5012699;28;20205;-78
2021/10/09 05:24:00;;;;;;;13.68;11.80;;;;;;;;;;5012220;28;20664;-77
2021/10/09 05:26:28;;;;;;;13.82;12.40;;;;;;;;;;5013456;28;20200;-77
2021/10/09 05:28:55;;;;;;;14.95;12.52;;;;;;;;;;5000678;28;20232;-76
2021/10/09 05:31:24;;;;;;;15.65;12.25;;;;;;;;;;5012840;28;20699;-76
2021/10/09 05:33:51;;;;;;;15.57;12.43;;;;;;;;;;5012722;28;20188;-77
2021/10/09 05:36:20;;;;;;;14.35;12.20;;;;;;;;;;5009019;28;20204;-76
2021/10/09 05:38:47;;;;;;;13.70;12.18;;;;;;;;;;5013181;28;20714;-76
2021/10/09 05:41:14;;;;;;;14.57;13.07;;;;;;;;;;5010795;28;20196;-78
2021/10/09 05:43:41;;;;;;;13.48;11.77;;;;;;;;;;5010962;28;20201;-77
2021/10/09 05:46:08;;;;;;;15.88;13.13;;;;;;;;;;5012919;28;20200;-77
2021/10/09 05:48:37;;;;;;;41.53;15.52;;;;;;;;;;5012835;28;20197;-76
2021/10/09 05:51:07;;;;;;;19.92;14.85;;;;;;;;;;5008621;28;21613;-77
2021/10/09 05:53:49;;;;;;;17.63;13.90;;;;;;;;;;5007210;28;20676;-77
2021/10/09 05:56:24;;;;;;;13.77;12.32;;;;;;;;;;5010891;28;20224;-75
2021/10/09 05:58:58;;;;;;;14.77;12.35;;;;;;;;;;5012106;28;20205;-78
2021/10/09 06:32:10;;;;;;;14.32;12.88;;;;;;;;;;5012339;28;20216;-76
2021/10/09 06:43:25;;;;;;;15.00;13.40;;;;;;;;;;5011458;28;20204;-76
2021/10/09 06:46:17;;;;;;;14.75;13.20;;;;;;;;;;5011903;28;20259;-76
2021/10/09 06:59:40;;;;;;;15.82;13.88;;;;;;;;;;5010097;28;20271;-75
2021/10/09 07:02:07;;;;;;;14.55;12.02;;;;;;;;;;5011252;28;20201;-75
2021/10/09 07:04:35;;;;;;;17.77;12.90;;;;;;;;;;5011710;28;20247;-75
2021/10/09 07:07:04;;;;;;;12.40;11.18;;;;;;;;;;5009269;28;20201;-75
2021/10/09 07:09:31;;;;;;;16.02;12.55;;;;;;;;;;5001073;28;20266;-75
2021/10/09 07:11:58;;;;;;;19.90;15.32;;;;;;;;;;5009933;28;20659;-75
2021/10/09 07:14:25;;;;;;;11.95;10.75;;;;;;;;;;5011047;28;20201;-75
2021/10/09 07:16:54;;;;;;;17.27;12.77;;;;;;;;;;5011710;28;20619;-75
2021/10/09 07:19:21;;;;;;;16.20;11.63;;;;;;;;;;5007657;28;20658;-76
2021/10/09 07:21:48;;;;;;;16.85;13.50;;;;;;;;;;5011247;28;20263;-74
2021/10/09 07:24:15;;;;;;;17.20;12.05;;;;;;;;;;5010717;28;20218;-74
2021/10/09 07:26:42;;;;;;;16.75;11.75;;;;;;;;;;5009147;28;20716;-75
2021/10/09 07:29:09;;;;;;;16.23;11.85;;;;;;;;;;5009240;28;20715;-77
2021/10/09 07:31:36;;;;;;;14.05;10.38;;;;;;;;;;5008987;28;20224;-77
2021/10/09 07:34:04;;;;;;;14.65;12.40;;;;;;;;;;5010647;28;20204;-77
2021/10/09 07:36:31;;;;;;;11.85;10.50;;;;;;;;;;5009891;28;20651;-77
2021/10/09 07:38:58;;;;;;;12.30;11.10;;;;;;;;;;5003118;28;20205;-77
2021/10/09 07:41:25;;;;;;;13.23;11.82;;;;;;;;;;5011120;28;20193;-77
2021/10/09 07:43:52;;;;;;;13.45;12.05;;;;;;;;;;5007904;28;20197;-77
2021/10/09 07:46:19;;;;;;;12.90;10.75;;;;;;;;;;5010632;28;20533;-77
2021/10/09 07:48:46;;;;;;;11.85;10.55;;;;;;;;;;4996351;28;20205;-77
2021/10/09 07:51:15;;;;;;;12.82;10.80;;;;;;;;;;4997883;28;20715;-77
2021/10/09 07:53:42;;;;;;;12.10;10.90;;;;;;;;;;5001777;28;20652;-77
2021/10/09 07:56:09;;;;;;;12.45;10.93;;;;;;;;;;5010159;28;20717;-78
2021/10/09 07:58:36;;;;;;;14.27;12.65;;;;;;;;;;5010900;28;20201;-79
2021/10/09 08:01:03;;;;;;;19.67;16.17;;;;;;;;;;5003168;28;20252;-75
2021/10/09 08:03:30;;;;;;;22.95;19.75;;;;;;;;;;5009847;28;20204;-77
2021/10/09 08:05:57;;;;;;;27.98;17.73;;;;;;;;;;5010108;28;20244;-77
2021/10/09 08:08:25;;;;;;;21.73;16.52;;;;;;;;;;5008885;28;20208;-77
2021/10/09 08:10:53;;;;;;;18.55;15.45;;;;;;;;;;5008712;28;20217;-77
2021/10/09 08:13:20;;;;;;;19.83;15.00;;;;;;;;;;4999001;28;20287;-77
2021/10/09 08:15:48;;;;;;;18.42;13.48;;;;;;;;;;5009515;28;20197;-77
2021/10/09 08:18:15;;;;;;;16.73;14.93;;;;;;;;;;5009858;28;20197;-77
2021/10/09 08:20:44;;;;;;;16.27;12.75;;;;;;;;;;5007096;28;20719;-77
2021/10/09 08:23:14;;;;;;;13.75;12.15;;;;;;;;;;5009485;28;20236;-76
2021/10/09 08:36:53;;;;;;;16.73;13.23;;;;;;;;;;5005339;28;20200;-76
2021/10/09 08:39:20;;;;;;;16.65;11.88;;;;;;;;;;5007858;28;20676;-76
2021/10/09 08:41:49;;;;;;;12.25;10.05;;;;;;;;;;5006042;28;20204;-77
2021/10/09 08:44:16;;;;;;;13.55;11.10;;;;;;;;;;5008503;28;20201;-76
2021/10/09 08:46:43;;;;;;;12.63;10.88;;;;;;;;;;5011983;28;20201;-75
2021/10/09 08:49:10;;;;;;;12.40;10.10;;;;;;;;;;5013807;28;20200;-76
2021/10/09 08:51:39;;;;;;;11.57;10.25;;;;;;;;;;5013406;28;20279;-76
2021/10/09 08:54:07;;;;;;;12.60;10.07;;;;;;;;;;5008695;28;20202;-77
2021/10/09 08:56:35;;;;;;;12.13;10.90;;;;;;;;;;5014088;28;20719;-76
2021/10/09 08:59:08;;;;;;;13.18;10.32;;;;;;;;;;5013940;28;20730;-76
2021/10/09 09:01:42;;;;;;;10.52;9.23;;;;;;;;;;5014407;28;20664;-76
2021/10/09 09:04:22;;;;;;;12.35;10.10;;;;;;;;;;5008418;28;20201;-79
2021/10/09 09:07:20;;;;;;;11.32;9.30;;;;;;;;;;5009127;28;20227;-77
2021/10/09 09:27:05;;;;;;;11.93;8.32;;;;;;;;;;5017001;28;20199;-77
2021/10/09 09:32:41;;;;;;;10.15;8.93;;;;;;;;;;5038359;28;20194;-77
2021/10/09 09:40:39;;;;;;;14.05;8.93;;;;;;;;;;5027441;28;20203;-76
2021/10/09 09:43:06;;;;;;;11.80;9.05;;;;;;;;;;5025662;28;20216;-75
2021/10/09 09:45:34;;;;;;;9.30;7.97;;;;;;;;;;5027281;28;20263;-77
2021/10/09 09:48:04;;;;;;;13.10;9.55;;;;;;;;;;5024530;28;20204;-77
2021/10/09 09:50:31;;;;;;;11.68;8.50;;;;;;;;;;5027422;28;20223;-77
2021/10/09 09:53:00;;;;;;;9.93;8.10;;;;;;;;;;5008122;28;20698;-76
2021/10/09 09:55:28;;;;;;;12.73;8.98;;;;;;;;;;5007878;28;20197;-75
2021/10/09 09:57:55;;;;;;;9.73;8.07;;;;;;;;;;5018472;28;20630;-76
2021/10/09 10:00:23;;;;;;;10.02;8.07;;;;;;;;;;5010786;28;20227;-75
2021/10/09 10:02:50;;;;;;;11.68;9.25;;;;;;;;;;5025672;28;20192;-76
2021/10/09 10:05:19;;;;;;;9.50;8.50;;;;;;;;;;5026150;28;20287;-75
2021/10/09 10:07:48;;;;;;;12.98;8.85;;;;;;;;;;5010172;28;20193;-76
2021/10/09 10:10:15;;;;;;;10.38;8.48;;;;;;;;;;5007665;28;20248;-76
2021/10/09 10:12:42;;;;;;;14.40;9.65;;;;;;;;;;5019346;28;20209;-76
2021/10/09 10:15:10;;;;;;;9.05;7.47;;;;;;;;;;5012747;28;20279;-76
2021/10/09 10:17:38;;;;;;;10.30;8.50;;;;;;;;;;5008388;28;20587;-75
2021/10/09 10:20:06;;;;;;;12.05;9.55;;;;;;;;;;5012706;28;20193;-75
2021/10/09 10:22:53;;;;;;;9.30;7.93;;;;;;;;;;5011820;28;20204;-75
2021/10/09 10:25:29;;;;;;;11.52;8.60;;;;;;;;;;5012777;28;20196;-76
2021/10/09 10:27:58;;;;;;;18.50;9.13;;;;;;;;;;5006799;28;20259;-76
2021/10/09 10:30:26;;;;;;;12.05;8.95;;;;;;;;;;5008640;28;20760;-77
2021/10/09 10:33:17;;;;;;;11.60;8.65;;;;;;;;;;5011351;28;20627;-76
2021/10/09 10:35:47;;;;;;;9.77;7.72;;;;;;;;;;5006699;28;20291;-77
2021/10/09 10:38:33;;;;;;;11.20;7.70;;;;;;;;;;5007562;28;20201;-78
2021/10/09 10:41:03;;;;;;;10.48;8.70;;;;;;;;;;5010163;28;20770;-77
2021/10/09 10:43:42;;;;;;;10.75;7.97;;;;;;;;;;5011558;28;20205;-77
2021/10/09 10:46:27;;;;;;;9.73;8.70;;;;;;;;;;5012310;28;20212;-76
2021/10/09 10:48:56;;;;;;;14.45;9.20;;;;;;;;;;4997408;28;20211;-76
2021/10/09 10:51:40;;;;;;;10.65;9.55;;;;;;;;;;5009995;28;20709;-78
2021/10/09 10:54:13;;;;;;;10.20;9.13;;;;;;;;;;5011202;28;20201;-79
2021/10/09 10:56:55;;;;;;;9.80;8.23;;;;;;;;;;5010842;28;20193;-76
2021/10/09 10:59:30;;;;;;;9.57;7.70;;;;;;;;;;5009564;28;20204;-77
2021/10/09 11:02:09;;;;;;;9.18;8.25;;;;;;;;;;5011437;28;20219;-76
2021/10/09 11:04:36;;;;;;;12.70;11.02;;;;;;;;;;5010491;28;20691;-77
2021/10/09 11:07:03;;;;;;;10.82;9.70;;;;;;;;;;5003340;28;20201;-78
2021/10/09 11:09:31;;;;;;;14.73;10.68;;;;;;;;;;5028392;28;20587;-77
2021/10/09 11:11:58;;;;;;;13.30;10.07;;;;;;;;;;5017454;28;20220;-78
2021/10/09 11:14:26;;;;;;;13.95;9.80;;;;;;;;;;5009466;28;20272;-78
2021/10/09 11:17:01;;;;;;;10.85;9.07;;;;;;;;;;5003404;28;20228;-77
2021/10/09 11:19:41;;;;;;;10.63;8.00;;;;;;;;;;5011074;28;20615;-76
2021/10/09 11:22:08;;;;;;;12.98;10.00;;;;;;;;;;5021579;28;20718;-76
2021/10/09 11:24:46;;;;;;;12.10;8.82;;;;;;;;;;5028642;28;20224;-78
2021/10/09 11:27:13;;;;;;;11.57;10.00;;;;;;;;;;5008493;28;20566;-77
2021/10/09 11:29:41;;;;;;;15.48;9.13;;;;;;;;;;5011681;28;20584;-76
2021/10/09 11:32:11;;;;;;;9.82;8.85;;;;;;;;;;5011842;28;20709;-77
2021/10/09 11:34:50;;;;;;;10.02;8.77;;;;;;;;;;5007664;28;20197;-76
2021/10/09 11:37:18;;;;;;;16.20;12.07;;;;;;;;;;5008742;28;20267;-76
2021/10/09 11:39:49;;;;;;;13.70;10.32;;;;;;;;;;5025916;28;20207;-76
2021/10/09 11:42:19;;;;;;;13.50;11.52;;;;;;;;;;5015003;28;20643;-75
2021/10/09 11:45:00;;;;;;;15.93;11.38;;;;;;;;;;5013841;28;20197;-75
2021/10/09 11:55:51;;;;;;;10.38;8.77;;;;;;;;;;5000604;28;20673;-76
2021/10/09 11:58:18;;;;;;;11.00;8.80;;;;;;;;;;5010122;28;20614;-75
2021/10/09 12:00:45;;;;;;;10.82;9.68;;;;;;;;;;5012307;28;20185;-75
2021/10/09 12:03:37;;;;;;;14.40;10.27;;;;;;;;;;5011479;28;20205;-75
2021/10/09 12:06:11;;;;;;;14.77;8.80;;;;;;;;;;5012316;28;20224;-75
2021/10/09 12:08:50;;;;;;;9.27;7.68;;;;;;;;;;5014834;28;20208;-75
2021/10/09 12:11:23;;;;;;;12.25;9.18;;;;;;;;;;5010167;28;20216;-76
2021/10/09 12:13:54;;;;;;;14.10;9.02;;;;;;;;;;5007665;28;20220;-74
2021/10/09 12:16:27;;;;;;;9.20;8.23;;;;;;;;;;5015636;28;20564;-75
2021/10/09 12:18:56;;;;;;;11.10;9.63;;;;;;;;;;5011293;28;20232;-75
2021/10/09 12:21:24;;;;;;;10.50;8.10;;;;;;;;;;5005953;28;20560;-76
2021/10/09 12:23:52;;;;;;;11.52;7.88;;;;;;;;;;4999471;28;20748;-75
2021/10/09 12:26:19;;;;;;;13.10;8.10;;;;;;;;;;5014401;28;20228;-75
2021/10/09 12:29:09;;;;;;;10.75;8.15;;;;;;;;;;5014200;28;20204;-75
2021/10/09 12:31:37;;;;;;;15.40;9.85;;;;;;;;;;5012564;28;20270;-75
2021/10/09 12:34:06;;;;;;;11.55;8.38;;;;;;;;;;5013218;28;20201;-75
2021/10/09 12:36:37;;;;;;;11.60;9.38;;;;;;;;;;5012059;28;20201;-75
2021/10/09 12:39:22;;;;;;;11.50;9.40;;;;;;;;;;5014390;28;20559;-75
2021/10/09 12:41:49;;;;;;;8.75;7.85;;;;;;;;;;5014529;28;20205;-76
2021/10/09 12:44:16;;;;;;;16.83;7.93;;;;;;;;;;5009366;28;20200;-75
2021/10/09 12:46:43;;;;;;;10.43;8.77;;;;;;;;;;5011257;28;20201;-75
2021/10/09 12:49:12;;;;;;;15.57;9.63;;;;;;;;;;5013216;28;20635;-75
2021/10/09 12:51:39;;;;;;;11.32;8.75;;;;;;;;;;5021086;28;20277;-75
2021/10/09 12:54:07;;;;;;;17.08;9.48;;;;;;;;;;5031983;28;20265;-75
2021/10/09 12:56:34;;;;;;;11.82;8.63;;;;;;;;;;5018989;28;20210;-75
2021/10/09 12:59:01;;;;;;;10.55;9.30;;;;;;;;;;5013990;28;20659;-74
2021/10/09 13:01:28;;;;;;;8.32;7.10;;;;;;;;;;5013075;28;20244;-75
2021/10/09 13:03:55;;;;;;;10.63;8.15;;;;;;;;;;5014066;28;20205;-75
2021/10/09 13:06:24;;;;;;;10.63;7.90;;;;;;;;;;5010071;28;20263;-75
2021/10/09 13:08:51;;;;;;;7.60;6.80;;;;;;;;;;5010271;28;20702;-75
2021/10/09 13:11:22;;;;;;;11.82;8.98;;;;;;;;;;5011727;28;20224;-75
2021/10/09 13:13:49;;;;;;;9.02;8.02;;;;;;;;;;5011419;28;20205;-75
2021/10/09 13:16:16;;;;;;;10.77;7.97;;;;;;;;;;5011849;28;20788;-75
2021/10/09 13:18:43;;;;;;;10.05;8.23;;;;;;;;;;5011296;28;20255;-74
2021/10/09 13:21:11;;;;;;;12.32;8.10;;;;;;;;;;5010205;28;20197;-75
2021/10/09 13:23:40;;;;;;;8.30;6.90;;;;;;;;;;5012817;28;20263;-75
2021/10/09 13:26:07;;;;;;;10.43;7.22;;;;;;;;;;5012720;28;20272;-78
2021/10/09 13:28:36;;;;;;;11.98;8.05;;;;;;;;;;5009954;28;20263;-75
2021/10/09 13:31:03;;;;;;;11.50;8.35;;;;;;;;;;5003822;28;20243;-74
2021/10/09 13:33:30;;;;;;;10.73;8.52;;;;;;;;;;5012541;28;20291;-75
2021/10/09 13:35:57;;;;;;;16.92;9.20;;;;;;;;;;5009582;28;20796;-74
2021/10/09 13:38:29;;;;;;;9.75;8.43;;;;;;;;;;5014893;28;20203;-74
2021/10/09 13:40:58;;;;;;;9.73;8.73;;;;;;;;;;5013383;28;20205;-74
2021/10/09 13:43:25;;;;;;;10.73;8.73;;;;;;;;;;5011034;28;20197;-74
2021/10/09 13:45:52;;;;;;;13.48;8.70;;;;;;;;;;5011501;28;20659;-74
2021/10/09 13:48:19;;;;;;;10.73;8.13;;;;;;;;;;5011457;28;20201;-75
2021/10/09 13:50:48;;;;;;;10.63;7.57;;;;;;;;;;5014140;28;20209;-76
2021/10/09 13:53:15;;;;;;;16.23;8.10;;;;;;;;;;5012931;28;20602;-75
2021/10/09 13:55:43;;;;;;;12.35;8.77;;;;;;;;;;5012964;28;20205;-75
2021/10/09 13:58:11;;;;;;;10.25;7.60;;;;;;;;;;5010975;28;20647;-75
2021/10/09 14:00:39;;;;;;;11.35;8.00;;;;;;;;;;5012108;28;20259;-74
2021/10/09 14:03:06;;;;;;;7.07;6.38;;;;;;;;;;5013033;28;20490;-76
2021/10/09 14:05:33;;;;;;;13.43;8.35;;;;;;;;;;5017920;28;20593;-76
2021/10/09 14:08:00;;;;;;;7.72;6.13;;;;;;;;;;5011972;28;20213;-74
2021/10/09 14:10:27;;;;;;;9.50;7.90;;;;;;;;;;5011172;28;20545;-75
2021/10/09 14:12:54;;;;;;;11.05;8.52;;;;;;;;;;5009696;28;20383;-75
2021/10/09 14:15:22;;;;;;;9.90;7.80;;;;;;;;;;5016087;28;20193;-74
2021/10/09 15:22:30;;;;;;;7.88;5.88;;;;;;;;;;4981666;28;20184;-76
2021/10/09 15:24:59;;;;;;;12.95;6.03;;;;;;;;;;4985809;28;20228;-76
2021/10/09 15:27:26;;;;;;;6.05;5.20;;;;;;;;;;4987627;28;20573;-77
2021/10/09 15:29:54;;;;;;;14.05;5.53;;;;;;;;;;4988013;28;20312;-77
2021/10/09 15:32:21;;;;;;;7.55;5.45;;;;;;;;;;4985927;28;20217;-77
2021/10/09 15:34:48;;;;;;;10.70;5.45;;;;;;;;;;4986526;28;20656;-76
2021/10/09 15:37:15;;;;;;;9.90;6.88;;;;;;;;;;4988347;28;20202;-77
2021/10/09 15:39:42;;;;;;;5.18;4.65;;;;;;;;;;4987160;28;20214;-77
2021/10/09 15:42:10;;;;;;;5.75;5.03;;;;;;;;;;4982928;28;20209;-77
2021/10/09 15:44:37;;;;;;;8.60;4.68;;;;;;;;;;4989024;28;20197;-77
2021/10/09 15:47:05;;;;;;;7.00;4.78;;;;;;;;;;4987361;28;20209;-77
2021/10/09 15:49:32;;;;;;;7.30;5.82;;;;;;;;;;4987064;28;20206;-77
2021/10/09 15:51:59;;;;;;;7.15;4.75;;;;;;;;;;4985473;28;20225;-76
2021/10/09 15:54:26;;;;;;;5.45;4.78;;;;;;;;;;4988819;28;20202;-76
2021/10/09 15:56:53;;;;;;;7.35;5.68;;;;;;;;;;4990331;28;20198;-78
2021/10/09 15:59:21;;;;;;;6.22;4.63;;;;;;;;;;4991027;28;20206;-78
2021/10/09 16:01:49;;;;;;;5.90;5.30;;;;;;;;;;4993006;28;20553;-77
2021/10/09 16:04:16;;;;;;;8.07;5.35;;;;;;;;;;4991709;28;20569;-76
2021/10/09 16:06:43;;;;;;;7.20;5.20;;;;;;;;;;4989446;28;20212;-76
2021/10/09 16:09:10;;;;;;;5.35;4.45;;;;;;;;;;4990100;28;20201;-76
2021/10/09 16:11:37;;;;;;;6.65;4.57;;;;;;;;;;4992470;28;20202;-76
2021/10/09 16:14:07;;;;;;;7.13;4.70;;;;;;;;;;4987939;28;20646;-77
2021/10/09 16:16:36;;;;;;;6.25;5.10;;;;;;;;;;4991620;28;20225;-76
2021/10/09 16:19:03;;;;;;;6.03;5.25;;;;;;;;;;4991606;28;20205;-77
2021/10/09 16:21:30;;;;;;;6.32;5.72;;;;;;;;;;4992426;28;20206;-77
2021/10/09 16:23:57;;;;;;;8.45;5.32;;;;;;;;;;4991957;28;20665;-76
2021/10/09 16:26:24;;;;;;;8.18;5.78;;;;;;;;;;4990112;28;20201;-77
2021/10/09 16:28:53;;;;;;;8.35;5.75;;;;;;;;;;4992197;28;20201;-76
2021/10/09 16:31:21;;;;;;;5.13;4.43;;;;;;;;;;4989224;28;20228;-77
2021/10/09 16:33:52;;;;;;;5.95;5.35;;;;;;;;;;4991764;28;20225;-77
2021/10/09 16:36:19;;;;;;;10.50;6.22;;;;;;;;;;4992394;28;20284;-76
2021/10/09 16:38:46;;;;;;;9.30;5.25;;;;;;;;;;4989787;28;20208;-76
2021/10/09 16:41:13;;;;;;;8.20;5.47;;;;;;;;;;4990784;28;20210;-76
2021/10/09 16:43:40;;;;;;;6.38;5.30;;;;;;;;;;4991690;28;20259;-76
2021/10/09 16:46:07;;;;;;;7.10;5.28;;;;;;;;;;4986617;28;20202;-77
2021/10/09 16:48:35;;;;;;;7.35;5.43;;;;;;;;;;4990062;28;20301;-78
2021/10/09 16:51:03;;;;;;;6.85;4.47;;;;;;;;;;4986714;28;20225;-77
2021/10/09 16:53:32;;;;;;;6.10;4.68;;;;;;;;;;4987288;28;20229;-78
2021/10/09 16:55:59;;;;;;;5.20;4.70;;;;;;;;;;4989580;28;20197;-77
2021/10/09 16:58:28;;;;;;;9.73;4.90;;;;;;;;;;4990897;28;20213;-76
2021/10/09 17:00:55;;;;;;;7.10;5.32;;;;;;;;;;4992118;28;20207;-76
2021/10/09 17:03:22;;;;;;;4.60;4.20;;;;;;;;;;4993331;28;20206;-76
2021/10/09 17:05:49;;;;;;;8.68;5.05;;;;;;;;;;4989422;28;20735;-76
2021/10/09 17:08:18;;;;;;;6.93;5.60;;;;;;;;;;4991455;28;20202;-76
2021/10/09 17:10:45;;;;;;;6.90;6.20;;;;;;;;;;4992060;28;20202;-76
2021/10/09 17:13:12;;;;;;;7.13;6.45;;;;;;;;;;4987303;28;20209;-77
2021/10/09 17:15:40;;;;;;;7.93;6.97;;;;;;;;;;4985802;28;20796;-76
2021/10/09 17:18:07;;;;;;;7.38;4.93;;;;;;;;;;4988560;28;20478;-78
2021/10/09 17:20:34;;;;;;;8.65;6.45;;;;;;;;;;4990830;28;20778;-78
2021/10/09 17:23:01;;;;;;;12.00;7.65;;;;;;;;;;4986405;28;20201;-78